Time;durP1;ratioP1;P1;durP2;ratioP2;P2;SDS_P1;SDS_P2;PMS_P1;PMS_P2;Temp;Humidity;BMP_temperature;BMP_pressure;BME280_temperature;BME280_humidity;BME280_pressure;Samples;Min_cycle;Max_cycle;Signal;HPM_P1;HPM_P2
2021/12/02 00:01:18;;;;;;;0.00;0.00;;;;;;;2.55;85.37;98975.78;10394368;28;20024;-71
2021/12/02 00:06:19;;;;;;;0.00;0.00;;;;;;;2.51;85.87;98995.47;10412389;28;20025;-71
2021/12/02 00:11:20;;;;;;;0.00;0.00;;;;;;;2.51;84.93;99011.25;10411543;28;20400;-70
2021/12/02 00:21:26;;;;;;;0.00;0.00;;;;;;;2.43;86.28;99040.09;10410754;28;20075;-70
2021/12/02 00:26:28;;;;;;;0.00;0.00;;;;;;;2.40;86.51;99048.25;10411520;28;20041;-70
2021/12/02 00:31:31;;;;;;;0.00;0.00;;;;;;;2.40;86.51;99053.53;10411166;28;20461;-70
2021/12/02 00:36:34;;;;;;;0.00;0.00;;;;;;;2.41;85.51;99066.50;10412053;28;20100;-70
2021/12/02 00:41:34;;;;;;;0.00;0.00;;;;;;;2.43;83.72;99075.06;10410623;28;20096;-70
2021/12/02 00:46:36;;;;;;;0.00;0.00;;;;;;;2.40;84.46;99080.63;10410317;28;20176;-70
2021/12/02 00:51:37;;;;;;;0.00;0.00;;;;;;;2.34;83.74;99078.59;10392456;28;20250;-70
2021/12/02 00:56:39;;;;;;;0.00;0.00;;;;;;;2.30;84.34;99092.16;10410292;28;20040;-69
2021/12/02 01:01:39;;;;;;;0.00;0.00;;;;;;;2.23;84.81;99102.44;10409877;28;20024;-70
2021/12/02 01:06:40;;;;;;;0.00;0.00;;;;;;;2.28;82.99;99123.03;10410114;28;20506;-69
2021/12/02 01:11:41;;;;;;;0.10;0.10;;;;;;;2.26;83.47;99137.13;10409561;28;20030;-69
2021/12/02 01:16:42;;;;;;;0.00;0.00;;;;;;;2.26;83.35;99131.88;10409565;28;20029;-70
2021/12/02 01:21:43;;;;;;;0.00;0.00;;;;;;;2.23;82.85;99145.31;10448066;23;20045;-66
2021/12/02 01:26:51;;;;;;;0.00;0.00;;;;;;;2.19;84.56;99154.47;10450265;28;20025;-67
2021/12/02 01:31:56;;;;;;;0.00;0.00;;;;;;;2.08;85.97;99178.28;10455186;28;20071;-67
2021/12/02 01:36:56;;;;;;;0.00;0.00;;;;;;;1.97;87.01;99192.44;10446040;28;20032;-67
2021/12/02 01:41:59;;;;;;;0.08;0.08;;;;;;;1.90;86.93;99193.16;10464368;28;20021;-67
2021/12/02 01:47:00;;;;;;;0.00;0.00;;;;;;;1.83;89.12;99207.81;10415240;28;20034;-67
2021/12/02 01:52:01;;;;;;;0.00;0.00;;;;;;;1.77;89.65;99206.59;10363479;28;20503;-67
2021/12/02 01:57:05;;;;;;;0.10;0.10;;;;;;;1.74;89.07;99218.19;10381613;28;20088;-67
2021/12/02 02:02:09;;;;;;;0.00;0.00;;;;;;;1.72;87.73;99228.03;10381119;28;20528;-67
2021/12/02 02:07:12;;;;;;;0.00;0.00;;;;;;;1.70;86.43;99227.34;10363770;28;20488;-67
2021/12/02 02:12:13;;;;;;;0.00;0.00;;;;;;;1.77;86.03;99233.66;10403470;28;20052;-67
2021/12/02 02:17:42;;;;;;;0.00;0.00;;;;;;;1.77;83.97;99238.09;10395596;28;20421;-67
2021/12/02 02:22:34;;;;;;;0.00;0.00;;;;;;;1.72;85.20;99248.22;10380698;28;20033;-67
2021/12/02 02:27:34;;;;;;;0.00;0.00;;;;;;;1.70;86.31;99255.38;10380437;28;20496;-67
2021/12/02 02:32:35;;;;;;;0.00;0.00;;;;;;;1.69;87.13;99275.56;10381230;28;20034;-67
2021/12/02 02:37:36;;;;;;;0.00;0.00;;;;;;;1.67;89.38;99288.00;10380493;28;20025;-67
2021/12/02 02:42:38;;;;;;;0.00;0.00;;;;;;;1.54;91.43;99295.31;10378893;28;20022;-67
2021/12/02 02:47:39;;;;;;;0.00;0.00;;;;;;;1.39;92.69;99310.63;10373733;28;20093;-67
2021/12/02 02:52:40;;;;;;;0.00;0.00;;;;;;;1.27;94.87;99314.38;10374298;28;20034;-67
2021/12/02 02:57:48;;;;;;;0.00;0.00;;;;;;;1.13;95.81;99316.44;10355912;28;20096;-67
2021/12/02 03:08:17;;;;;;;0.05;0.05;;;;;;;0.78;99.07;99335.22;10373455;28;20049;-67
2021/12/02 03:13:24;;;;;;;0.00;0.00;;;;;;;0.63;99.80;99355.72;10373483;28;20026;-67
2021/12/02 03:18:24;;;;;;;0.00;0.00;;;;;;;0.54;100.00;99358.31;10372659;28;20036;-67
2021/12/02 03:23:25;;;;;;;0.03;0.03;;;;;;;0.45;100.00;99363.38;10373755;28;20028;-68
2021/12/02 03:28:25;;;;;;;0.00;0.00;;;;;;;0.40;100.00;99373.41;10372812;28;20263;-67
2021/12/02 03:33:25;;;;;;;0.17;0.17;;;;;;;0.36;100.00;99366.78;10372790;28;20181;-67
2021/12/02 03:38:27;;;;;;;0.00;0.00;;;;;;;0.33;100.00;99364.41;10354713;28;20079;-67
2021/12/02 03:43:35;;;;;;;0.00;0.00;;;;;;;0.32;100.00;99367.16;10372642;28;20038;-67
2021/12/02 03:48:38;;;;;;;0.10;0.10;;;;;;;0.36;98.69;99382.50;10372224;28;20492;-67
2021/12/02 03:53:39;;;;;;;0.10;0.10;;;;;;;0.39;98.00;99400.56;10371898;28;20028;-67
2021/12/02 03:58:44;;;;;;;0.00;0.00;;;;;;;0.44;97.12;99405.44;10370896;28;20022;-67
2021/12/02 04:03:44;;;;;;;0.10;0.10;;;;;;;0.40;96.76;99407.47;10372735;28;20119;-67
2021/12/02 04:08:55;;;;;;;0.10;0.10;;;;;;;0.39;97.34;99408.44;10372444;28;20116;-67
2021/12/02 04:19:15;;;;;;;0.00;0.00;;;;;;;0.35;97.17;99428.00;10371380;28;20033;-67
2021/12/02 04:24:15;;;;;;;0.03;0.03;;;;;;;0.33;96.54;99440.38;10371463;28;20026;-67
2021/12/02 04:29:16;;;;;;;0.00;0.00;;;;;;;0.29;96.60;99456.47;10371025;28;20033;-67
2021/12/02 04:34:17;;;;;;;0.03;0.03;;;;;;;0.25;96.23;99461.13;10370269;28;20026;-67
2021/12/02 04:39:29;;;;;;;0.00;0.00;;;;;;;0.16;96.19;99464.50;10369957;28;20026;-66
2021/12/02 04:44:29;;;;;;;0.10;0.10;;;;;;;0.08;96.34;99469.53;10368672;28;20041;-67
2021/12/02 04:49:29;;;;;;;0.00;0.00;;;;;;;0.01;96.62;99471.00;10351675;28;20026;-66
2021/12/02 04:54:30;;;;;;;0.00;0.00;;;;;;;-0.06;96.52;99475.88;10370344;28;20037;-67
2021/12/02 04:59:30;;;;;;;0.10;0.10;;;;;;;-0.12;96.08;99479.00;10369412;28;20068;-67
2021/12/02 05:04:30;;;;;;;0.10;0.10;;;;;;;-0.16;96.31;99495.91;10369868;28;20432;-67
2021/12/02 05:09:31;;;;;;;0.10;0.10;;;;;;;-0.25;96.34;99500.09;10368302;28;20285;-67
2021/12/02 05:14:32;;;;;;;0.00;0.00;;;;;;;-0.30;96.78;99507.47;10355832;28;20506;-67
2021/12/02 05:19:32;;;;;;;0.10;0.10;;;;;;;-0.37;97.21;99498.47;10383364;28;20018;-70
2021/12/02 05:24:32;;;;;;;0.10;0.10;;;;;;;-0.38;97.22;99502.84;10410117;28;20104;-67
2021/12/02 05:29:33;;;;;;;0.00;0.00;;;;;;;-0.43;97.19;99515.50;10409394;28;20322;-67
2021/12/02 05:34:34;;;;;;;0.20;0.20;;;;;;;-0.46;97.59;99526.19;10409396;28;20022;-69
2021/12/02 05:39:34;;;;;;;0.10;0.10;;;;;;;-0.48;97.52;99526.31;10409589;28;20022;-68
2021/12/02 05:44:35;;;;;;;0.10;0.10;;;;;;;-0.42;97.56;99545.09;10404735;28;20040;-67
2021/12/02 05:49:35;;;;;;;0.08;0.08;;;;;;;-0.39;97.49;99529.97;10370838;28;20064;-67
2021/12/02 05:54:36;;;;;;;0.10;0.10;;;;;;;-0.39;97.30;99543.06;10403754;28;20069;-67
2021/12/02 05:59:36;;;;;;;0.10;0.10;;;;;;;-0.38;97.37;99546.50;10408513;28;20049;-67
2021/12/02 06:04:39;;;;;;;0.10;0.10;;;;;;;-0.40;97.42;99551.03;10408688;28;20032;-67
2021/12/02 06:09:39;;;;;;;0.00;0.00;;;;;;;-0.43;97.41;99559.13;10390451;28;20298;-67
2021/12/02 06:14:40;;;;;;;0.10;0.10;;;;;;;-0.50;96.96;99583.13;10403563;28;20028;-67
2021/12/02 06:19:40;;;;;;;0.00;0.00;;;;;;;-0.53;96.50;99591.22;10370797;28;20041;-67
2021/12/02 06:24:47;;;;;;;0.10;0.10;;;;;;;-0.54;96.46;99601.81;10375343;28;20033;-69
2021/12/02 06:29:47;;;;;;;0.15;0.15;;;;;;;-0.60;96.25;99605.72;10374797;28;20030;-67
2021/12/02 06:34:48;;;;;;;0.10;0.10;;;;;;;-0.65;96.63;99615.69;10374821;28;20033;-67
2021/12/02 06:39:48;;;;;;;0.00;0.00;;;;;;;-0.71;96.68;99614.38;10357084;28;20253;-67
2021/12/02 06:44:48;;;;;;;0.10;0.10;;;;;;;-0.72;96.54;99630.22;10374368;28;20053;-67
2021/12/02 06:49:50;;;;;;;0.20;0.20;;;;;;;-0.74;96.63;99640.75;10373682;28;20030;-67
2021/12/02 06:54:50;;;;;;;0.10;0.10;;;;;;;-0.76;97.00;99662.75;10356726;28;20275;-69
2021/12/02 06:59:50;;;;;;;0.00;0.00;;;;;;;-0.79;97.07;99655.13;10373496;28;20025;-69
2021/12/02 07:04:51;;;;;;;0.10;0.10;;;;;;;-0.76;96.98;99675.81;10374691;28;20092;-69
2021/12/02 07:09:51;;;;;;;0.00;0.00;;;;;;;-0.76;97.42;99681.06;10373175;28;20022;-69
2021/12/02 07:14:51;;;;;;;0.10;0.10;;;;;;;-0.79;97.25;99687.34;10380965;28;20492;-69
2021/12/02 07:24:55;;;;;;;0.20;0.20;;;;;;;-0.76;97.65;99704.59;10432047;28;20060;-71
2021/12/02 07:29:55;;;;;;;0.10;0.10;;;;;;;-0.74;97.73;99721.00;10410641;28;20372;-71
2021/12/02 07:35:00;;;;;;;0.03;0.03;;;;;;;-0.72;97.96;99724.34;10411346;28;20025;-71
2021/12/02 07:40:00;;;;;;;;;;;;;;;-0.72;97.37;99717.34;10412262;28;20272;-72
2021/12/02 07:45:01;;;;;;;0.10;0.10;;;;;;;-0.71;97.30;99732.06;10418818;28;20251;-71
2021/12/02 07:50:01;;;;;;;0.10;0.10;;;;;;;-0.65;96.76;99730.78;10451483;28;20052;-72
2021/12/02 07:55:08;;;;;;;0.10;0.10;;;;;;;-0.53;95.48;99752.56;10452360;28;20450;-72
2021/12/02 08:00:11;;;;;;;0.10;0.10;;;;;;;-0.18;95.39;99765.59;10451571;28;20021;-72
2021/12/02 08:05:12;;;;;;;0.10;0.10;;;;;;;-0.02;94.36;99781.81;10450841;28;20035;-72
2021/12/02 08:10:14;;;;;;;0.10;0.10;;;;;;;0.30;93.78;99783.75;10450551;28;20192;-72
2021/12/02 08:15:23;;;;;;;0.10;0.10;;;;;;;0.91;90.59;99785.97;10450379;28;20087;-71
2021/12/02 08:20:26;;;;;;;0.00;0.00;;;;;;;1.65;87.30;99801.78;10449530;28;20036;-72
2021/12/02 08:25:28;;;;;;;0.00;0.00;;;;;;;2.56;83.16;99810.72;10450287;28;20029;-71
2021/12/02 08:30:32;;;;;;;0.00;0.00;;;;;;;3.25;79.49;99824.88;10449803;28;20025;-71
2021/12/02 08:35:34;;;;;;;0.03;0.03;;;;;;;3.87;78.30;99834.19;10449782;28;20189;-71
2021/12/02 08:40:36;;;;;;;0.00;0.00;;;;;;;4.23;75.57;99850.22;10448630;28;20076;-71
2021/12/02 08:45:39;;;;;;;0.00;0.00;;;;;;;4.57;76.03;99845.25;10449191;28;20048;-71
2021/12/02 08:50:40;;;;;;;0.00;0.00;;;;;;;4.82;74.67;99851.66;10448829;28;20021;-70
2021/12/02 08:55:40;;;;;;;0.00;0.00;;;;;;;4.70;73.28;99866.03;10448963;28;20122;-70
2021/12/02 09:00:41;;;;;;;0.00;0.00;;;;;;;4.69;72.68;99874.94;10448909;28;20151;-71
2021/12/02 09:05:43;;;;;;;0.00;0.00;;;;;;;4.73;71.15;99871.00;10430915;28;20024;-71
2021/12/02 09:10:43;;;;;;;0.00;0.00;;;;;;;4.73;70.71;99882.38;10448699;28;20021;-70
2021/12/02 09:15:44;;;;;;;0.00;0.00;;;;;;;4.59;71.27;99889.94;10448581;28;20033;-71
2021/12/02 09:20:44;;;;;;;0.00;0.00;;;;;;;4.35;71.58;99901.78;10448231;28;20029;-71
2021/12/02 09:25:45;;;;;;;0.00;0.00;;;;;;;3.93;70.50;99912.66;10430697;28;20121;-71
2021/12/02 09:30:46;;;;;;;0.00;0.00;;;;;;;3.51;72.60;99919.97;10447692;28;20039;-71
2021/12/02 09:35:46;;;;;;;0.00;0.00;;;;;;;3.20;72.19;99917.41;10448660;28;20040;-70
2021/12/02 09:40:47;;;;;;;0.00;0.00;;;;;;;2.98;71.39;99930.75;10429869;28;20483;-70
2021/12/02 09:45:47;;;;;;;0.00;0.00;;;;;;;2.73;71.41;99935.47;10447595;28;20044;-70
2021/12/02 09:50:55;;;;;;;0.00;0.00;;;;;;;2.62;72.38;99936.41;10447833;28;20392;-70
2021/12/02 10:01:02;;;;;;;0.00;0.00;;;;;;;2.47;73.92;99945.56;10456408;28;20085;-70
2021/12/02 10:06:06;;;;;;;0.00;0.00;;;;;;;2.43;72.67;99952.03;10438663;28;20033;-71
2021/12/02 10:11:09;;;;;;;0.00;0.00;;;;;;;2.38;73.27;99951.59;10456426;28;20487;-71
2021/12/02 10:16:26;;;;;;;0.00;0.00;;;;;;;2.35;71.79;99962.34;10455993;28;20075;-71
2021/12/02 10:22:13;;;;;;;0.00;0.00;;;;;;;2.27;70.14;99970.91;10455209;28;20037;-70
2021/12/02 10:26:57;;;;;;;0.00;0.00;;;;;;;2.16;72.35;99970.94;10446898;28;20506;-71
2021/12/02 10:32:08;;;;;;;0.00;0.00;;;;;;;2.06;71.91;99976.09;10455016;28;20029;-71
2021/12/02 10:37:10;;;;;;;0.00;0.00;;;;;;;2.01;72.56;99980.91;10455117;28;20029;-71
2021/12/02 10:42:12;;;;;;;0.00;0.00;;;;;;;2.04;72.69;99996.41;10454389;28;20097;-71
2021/12/02 10:47:15;;;;;;;0.00;0.00;;;;;;;2.08;74.22;100000.47;10453801;28;20029;-71
2021/12/02 10:52:23;;;;;;;0.00;0.00;;;;;;;2.08;73.12;100002.25;10455000;28;20029;-71
2021/12/02 10:57:26;;;;;;;0.00;0.00;;;;;;;2.08;73.34;100007.50;10453901;28;20108;-71
2021/12/02 11:02:32;;;;;;;0.00;0.00;;;;;;;2.20;72.95;100012.59;10453657;28;20163;-71
2021/12/02 11:07:33;;;;;;;0.00;0.00;;;;;;;2.41;73.03;100011.78;10434382;28;20036;-71
2021/12/02 11:12:40;;;;;;;0.00;0.00;;;;;;;2.40;71.49;100018.84;10435647;28;20029;-71
2021/12/02 11:17:50;;;;;;;0.10;0.10;;;;;;;2.40;72.70;100024.09;10452972;28;20020;-71
2021/12/02 11:23:03;;;;;;;0.00;0.00;;;;;;;2.45;71.95;100031.63;10453338;28;20031;-72
2021/12/02 11:28:08;;;;;;;0.00;0.00;;;;;;;2.43;71.53;100038.78;10452299;28;20024;-71
2021/12/02 11:33:09;;;;;;;;;;;;;;;2.41;70.25;100048.56;10453409;28;20029;-72
2021/12/02 11:38:16;;;;;;;0.00;0.00;;;;;;;2.29;70.81;100047.78;10434337;28;20007;-72
2021/12/02 11:43:21;;;;;;;0.00;0.00;;;;;;;2.12;70.79;100061.47;10452463;28;20021;-71
2021/12/02 11:48:32;;;;;;;0.00;0.00;;;;;;;1.93;71.47;100056.88;10451416;28;20108;-72
2021/12/02 11:53:33;;;;;;;0.00;0.00;;;;;;;1.84;72.92;100068.09;10452775;28;20380;-72
2021/12/02 11:58:34;;;;;;;0.00;0.00;;;;;;;1.74;73.15;100071.44;10451356;28;20044;-71
2021/12/02 12:03:47;;;;;;;0.00;0.00;;;;;;;1.59;72.96;100083.97;10450681;28;20506;-72
2021/12/02 12:08:50;;;;;;;0.00;0.00;;;;;;;1.47;74.34;100089.34;10450604;28;20021;-72
2021/12/02 12:13:55;;;;;;;0.00;0.00;;;;;;;1.38;75.71;100097.94;10450972;28;20025;-71
2021/12/02 12:19:15;;;;;;;0.00;0.00;;;;;;;1.32;76.35;100097.44;10430715;28;20036;-72
2021/12/02 12:24:15;;;;;;;0.00;0.00;;;;;;;1.31;76.81;100098.41;10432700;28;20029;-72
2021/12/02 12:29:17;;;;;;;0.00;0.00;;;;;;;1.33;77.65;100104.34;10449596;28;20025;-72
2021/12/02 12:34:30;;;;;;;0.00;0.00;;;;;;;1.34;77.30;100103.44;10450055;28;20028;-71
2021/12/02 12:39:33;;;;;;;0.05;0.05;;;;;;;1.34;77.15;100113.91;10448891;28;20013;-72
2021/12/02 12:44:58;;;;;;;0.10;0.10;;;;;;;1.37;77.19;100128.59;10448881;28;20021;-72
2021/12/02 12:50:20;;;;;;;0.10;0.10;;;;;;;1.38;77.59;100130.25;10430267;28;20052;-71
2021/12/02 12:55:22;;;;;;;0.00;0.00;;;;;;;1.35;78.23;100133.13;10448594;28;20029;-71
2021/12/02 13:00:38;;;;;;;0.00;0.00;;;;;;;1.31;77.76;100148.28;10447967;28;20024;-72
2021/12/02 13:05:43;;;;;;;0.00;0.00;;;;;;;1.28;79.58;100153.75;10447512;28;20129;-71
2021/12/02 13:10:59;;;;;;;0.00;0.00;;;;;;;1.24;79.33;100162.78;10447617;28;20043;-72
2021/12/02 13:16:19;;;;;;;0.00;0.00;;;;;;;1.22;80.24;100172.59;10447493;28;20498;-71
2021/12/02 13:21:33;;;;;;;0.03;0.03;;;;;;;1.23;80.22;100171.63;10461098;23;20461;-68
2021/12/02 13:26:52;;;;;;;0.10;0.10;;;;;;;1.22;81.09;100175.19;10395872;28;20026;-68
2021/12/02 13:31:56;;;;;;;0.00;0.00;;;;;;;1.24;80.91;100177.69;10409024;28;20431;-68
2021/12/02 13:37:00;;;;;;;0.03;0.03;;;;;;;1.31;80.26;100190.25;10409414;28;20052;-68
2021/12/02 13:42:07;;;;;;;0.00;0.00;;;;;;;1.35;80.20;100189.06;10409006;28;20045;-68
2021/12/02 13:47:13;;;;;;;0.00;0.00;;;;;;;1.41;80.59;100203.50;10408718;28;20445;-68
2021/12/02 13:52:38;;;;;;;0.10;0.10;;;;;;;1.45;80.60;100210.19;10408846;28;20365;-68
2021/12/02 13:57:48;;;;;;;0.00;0.00;;;;;;;1.53;80.88;100205.19;10408653;28;20030;-68
2021/12/02 14:03:00;;;;;;;0.00;0.00;;;;;;;1.62;80.56;100226.47;10409134;28;20048;-68
2021/12/02 14:08:06;;;;;;;0.00;0.00;;;;;;;1.65;79.90;100232.31;10408644;28;20029;-68
2021/12/02 14:13:09;;;;;;;0.00;0.00;;;;;;;1.67;80.95;100230.41;10391116;28;20053;-68
2021/12/02 14:18:10;;;;;;;0.10;0.10;;;;;;;1.57;81.92;100242.53;10390289;28;20026;-68
2021/12/02 14:23:15;;;;;;;0.00;0.00;;;;;;;1.43;82.73;100253.25;10408628;28;20491;-68
2021/12/02 14:28:21;;;;;;;0.00;0.00;;;;;;;1.29;83.22;100265.59;10407961;28;20029;-68
2021/12/02 14:33:26;;;;;;;0.08;0.08;;;;;;;1.15;83.95;100276.28;10408487;28;20033;-68
2021/12/02 14:38:28;;;;;;;0.00;0.00;;;;;;;1.02;84.47;100271.09;10408437;28;20029;-68
2021/12/02 14:43:32;;;;;;;0.00;0.00;;;;;;;0.86;85.18;100289.72;10415680;28;20040;-68
2021/12/02 14:48:32;;;;;;;0.00;0.00;;;;;;;0.70;86.30;100293.53;10414790;28;20049;-68
2021/12/02 14:53:51;;;;;;;0.10;0.10;;;;;;;0.57;86.75;100302.25;10415059;28;20101;-68
2021/12/02 14:59:15;;;;;;;0.10;0.10;;;;;;;0.44;87.79;100318.03;10397310;28;20033;-68
2021/12/02 15:04:17;;;;;;;0.00;0.00;;;;;;;0.33;88.22;100320.53;10415103;28;20068;-68
2021/12/02 15:09:39;;;;;;;0.10;0.10;;;;;;;0.24;89.15;100331.66;10414245;28;20583;-68
2021/12/02 15:14:45;;;;;;;0.00;0.00;;;;;;;0.14;89.75;100343.69;10414609;28;20559;-68
2021/12/02 15:19:50;;;;;;;0.10;0.10;;;;;;;0.02;90.69;100355.00;10414028;28;20076;-68
2021/12/02 15:24:51;;;;;;;0.00;0.00;;;;;;;-0.12;91.65;100354.13;10413778;28;20072;-68
2021/12/02 15:29:52;;;;;;;0.05;0.05;;;;;;;-0.25;91.91;100361.13;10414080;28;20079;-68
2021/12/02 15:34:54;;;;;;;0.10;0.10;;;;;;;-0.37;92.63;100361.94;10395858;28;20036;-68
2021/12/02 15:39:54;;;;;;;0.00;0.00;;;;;;;-0.48;92.80;100375.72;10413481;28;20022;-68
2021/12/02 15:44:54;;;;;;;0.00;0.00;;;;;;;-0.58;93.49;100378.09;10413467;28;20025;-68
2021/12/02 15:50:09;;;;;;;0.10;0.10;;;;;;;-0.59;93.47;100386.03;10412602;28;20509;-68
2021/12/02 15:55:10;;;;;;;0.10;0.10;;;;;;;-0.60;93.27;100393.06;10413743;28;20304;-68
2021/12/02 16:00:20;;;;;;;0.10;0.10;;;;;;;-0.64;92.91;100388.09;10413240;28;20053;-68
2021/12/02 16:05:31;;;;;;;0.00;0.00;;;;;;;-0.73;92.48;100398.25;10413537;28;20032;-68
2021/12/02 16:11:07;;;;;;;0.10;0.10;;;;;;;-0.80;92.59;100407.38;10412819;28;20032;-68
2021/12/02 16:16:05;;;;;;;0.10;0.10;;;;;;;-0.88;92.35;100425.34;10412869;28;20026;-68
2021/12/02 16:21:07;;;;;;;0.10;0.10;;;;;;;-0.96;93.64;100432.81;10411771;28;20033;-68
2021/12/02 16:26:09;;;;;;;0.10;0.10;;;;;;;-1.04;93.26;100446.38;10411923;28;20112;-68
2021/12/02 16:31:10;;;;;;;0.20;0.20;;;;;;;-1.08;93.74;100457.09;10411229;28;20021;-68
2021/12/02 16:36:13;;;;;;;0.20;0.20;;;;;;;-1.11;94.27;100465.13;10411713;28;20026;-68
2021/12/02 16:41:13;;;;;;;0.10;0.10;;;;;;;-1.12;94.04;100469.50;10393131;28;20100;-68
2021/12/02 16:46:14;;;;;;;0.00;0.00;;;;;;;-1.15;94.04;100464.47;10410889;28;20026;-68
2021/12/02 16:51:16;;;;;;;0.10;0.10;;;;;;;-1.18;93.66;100467.28;10410499;28;20021;-68
2021/12/02 16:56:17;;;;;;;0.10;0.10;;;;;;;-1.20;93.57;100482.19;10410667;28;20404;-68
2021/12/02 17:01:17;;;;;;;0.10;0.10;;;;;;;-1.23;93.91;100491.06;10409814;28;20029;-68
2021/12/02 17:06:18;;;;;;;0.10;0.10;;;;;;;-1.22;94.59;100502.34;10410118;28;20742;-68
2021/12/02 17:11:18;;;;;;;0.10;0.10;;;;;;;-1.22;94.80;100507.56;10409914;28;20472;-68
2021/12/02 17:16:19;;;;;;;0.10;0.10;;;;;;;-1.26;95.32;100522.59;10410150;28;20391;-68
2021/12/02 17:21:20;;;;;;;0.10;0.10;;;;;;;-1.33;95.62;100520.47;10409226;28;20363;-68
2021/12/02 17:26:21;;;;;;;0.20;0.20;;;;;;;-1.34;95.99;100524.81;10409859;28;20025;-68
2021/12/02 17:31:22;;;;;;;0.10;0.10;;;;;;;-1.33;95.78;100520.47;10409209;28;20036;-68
2021/12/02 17:36:22;;;;;;;0.30;0.30;;;;;;;-1.35;96.88;100522.31;10409438;28;20097;-68
2021/12/02 17:41:23;;;;;;;0.10;0.10;;;;;;;-1.39;97.52;100525.13;10409189;28;20022;-68
2021/12/02 17:46:24;;;;;;;0.10;0.10;;;;;;;-1.40;98.27;100536.50;10408853;28;20033;-68
2021/12/02 17:51:25;;;;;;;0.10;0.10;;;;;;;-1.39;98.52;100532.13;10408908;28;20026;-68
2021/12/02 17:56:26;;;;;;;0.10;0.10;;;;;;;-1.42;98.63;100529.69;10409020;28;20045;-68
2021/12/02 18:01:26;;;;;;;0.17;0.17;;;;;;;-1.47;99.73;100532.56;10408743;28;20024;-68
2021/12/02 18:06:27;;;;;;;0.20;0.20;;;;;;;-1.47;99.83;100531.72;10398904;28;20037;-68
2021/12/02 18:11:27;;;;;;;0.00;0.00;;;;;;;-1.51;100.00;100528.44;10404513;28;20714;-68
2021/12/02 18:16:28;;;;;;;0.20;0.20;;;;;;;-1.56;100.00;100524.41;10413945;28;20052;-68
2021/12/02 18:21:30;;;;;;;0.20;0.20;;;;;;;-1.57;100.00;100522.72;10415895;28;20100;-68
2021/12/02 18:26:31;;;;;;;0.20;0.20;;;;;;;-1.55;100.00;100519.09;10416428;28;20029;-68
2021/12/02 18:31:32;;;;;;;0.10;0.10;;;;;;;-1.53;100.00;100519.03;10416008;28;20588;-68
2021/12/02 18:36:32;;;;;;;0.10;0.10;;;;;;;-1.55;100.00;100513.88;10416810;28;20033;-68
2021/12/02 18:41:34;;;;;;;0.10;0.10;;;;;;;-1.60;100.00;100522.00;10415672;28;20018;-68
2021/12/02 18:46:38;;;;;;;0.15;0.15;;;;;;;-1.59;100.00;100522.81;10415361;28;20456;-68
2021/12/02 18:51:38;;;;;;;0.13;0.13;;;;;;;-1.60;100.00;100529.81;10413721;28;20017;-68
2021/12/02 18:56:39;;;;;;;0.00;0.00;;;;;;;-1.60;100.00;100531.56;10414960;28;20034;-68
2021/12/02 19:01:40;;;;;;;0.20;0.20;;;;;;;-1.60;100.00;100540.28;10414842;28;20018;-68
2021/12/02 19:22:41;;;;;;;0.10;0.10;;;;;;;-1.57;100.00;100556.69;10414034;28;20025;-68
2021/12/02 19:27:42;;;;;;;0.10;0.10;;;;;;;-1.62;100.00;100560.41;10412799;28;20033;-68
2021/12/02 19:32:42;;;;;;;0.20;0.20;;;;;;;-1.62;100.00;100562.19;10413554;28;20018;-68
2021/12/02 19:37:43;;;;;;;0.10;0.10;;;;;;;-1.62;100.00;100557.78;10412669;28;20476;-68
2021/12/02 19:42:44;;;;;;;0.20;0.20;;;;;;;-1.60;100.00;100566.41;10413220;28;20052;-68
2021/12/02 19:47:46;;;;;;;0.20;0.20;;;;;;;-1.55;100.00;100576.56;10412610;28;20025;-68
2021/12/02 19:52:47;;;;;;;0.10;0.10;;;;;;;-1.56;100.00;100564.44;10395276;28;20025;-68
2021/12/02 19:57:49;;;;;;;0.10;0.10;;;;;;;-1.57;100.00;100568.00;10394878;28;20073;-68
2021/12/02 20:02:50;;;;;;;0.10;0.10;;;;;;;-1.58;100.00;100570.69;10394841;28;20021;-68
2021/12/02 20:07:50;;;;;;;0.10;0.10;;;;;;;-1.59;100.00;100567.22;10411444;28;20036;-68
2021/12/02 20:12:51;;;;;;;0.10;0.10;;;;;;;-1.56;100.00;100559.22;10412162;28;20032;-68
2021/12/02 20:17:55;;;;;;;0.10;0.10;;;;;;;-1.53;100.00;100558.19;10411226;28;20156;-68
2021/12/02 20:22:55;;;;;;;0.08;0.08;;;;;;;-1.52;100.00;100550.25;10410869;28;20025;-68
2021/12/02 20:27:57;;;;;;;0.10;0.10;;;;;;;-1.50;100.00;100542.34;10411451;28;20037;-68
2021/12/02 20:32:58;;;;;;;0.10;0.10;;;;;;;-1.47;100.00;100540.38;10410190;28;20155;-68
2021/12/02 20:37:59;;;;;;;0.10;0.10;;;;;;;-1.44;100.00;100542.00;10409604;28;20120;-68
2021/12/02 20:43:02;;;;;;;0.10;0.10;;;;;;;-1.42;100.00;100551.44;10410989;28;20056;-68
2021/12/02 20:53:10;;;;;;;0.20;0.20;;;;;;;-1.30;100.00;100567.31;10410685;28;20036;-68
2021/12/02 20:58:11;;;;;;;0.10;0.10;;;;;;;-1.27;100.00;100564.53;10409859;28;20027;-68
2021/12/02 21:03:11;;;;;;;0.10;0.10;;;;;;;-1.23;100.00;100560.78;10410087;28;20022;-68
2021/12/02 21:08:12;;;;;;;0.20;0.20;;;;;;;-1.21;100.00;100558.94;10409355;28;20037;-68
2021/12/02 21:13:16;;;;;;;0.10;0.10;;;;;;;-1.18;100.00;100553.53;10410292;28;20078;-68
2021/12/02 21:18:18;;;;;;;0.10;0.10;;;;;;;-1.18;100.00;100543.91;10409536;28;20029;-68
2021/12/02 21:23:19;;;;;;;0.10;0.10;;;;;;;-1.13;100.00;100556.72;10410063;28;20053;-68
2021/12/02 21:28:20;;;;;;;0.10;0.10;;;;;;;-1.05;100.00;100585.84;10409441;28;20475;-68
2021/12/02 21:33:21;;;;;;;0.10;0.10;;;;;;;-0.91;100.00;100578.00;10409705;28;20392;-68
2021/12/02 21:38:25;;;;;;;0.10;0.10;;;;;;;-0.75;100.00;100571.88;10409140;28;20041;-68
2021/12/02 21:43:25;;;;;;;0.00;0.00;;;;;;;-0.63;100.00;100550.19;10409481;28;20143;-68
2021/12/02 21:48:26;;;;;;;0.00;0.00;;;;;;;-0.57;100.00;100549.81;10411607;28;20112;-68
2021/12/02 21:53:27;;;;;;;0.10;0.10;;;;;;;-0.60;100.00;100546.56;10419150;28;20118;-68
2021/12/02 21:58:29;;;;;;;0.10;0.10;;;;;;;-0.67;100.00;100585.31;10418004;28;20029;-68
2021/12/02 22:03:30;;;;;;;0.10;0.10;;;;;;;-0.65;100.00;100585.22;10400593;28;20025;-68
2021/12/02 22:08:33;;;;;;;0.08;0.08;;;;;;;-0.60;100.00;100591.88;10417787;28;20030;-68
2021/12/02 22:13:34;;;;;;;0.10;0.10;;;;;;;-0.56;100.00;100608.22;10417599;28;20029;-68
2021/12/02 22:18:34;;;;;;;0.00;0.00;;;;;;;-0.50;100.00;100613.91;10417269;28;20473;-68
2021/12/02 22:23:34;;;;;;;0.10;0.10;;;;;;;-0.49;100.00;100618.22;10416660;28;20274;-68
2021/12/02 22:28:35;;;;;;;0.00;0.00;;;;;;;-0.51;100.00;100622.69;10416115;28;20025;-68
2021/12/02 22:33:35;;;;;;;0.10;0.10;;;;;;;-0.56;100.00;100629.97;10416286;28;20280;-68
2021/12/02 22:38:36;;;;;;;0.10;0.10;;;;;;;-0.60;100.00;100622.44;10415372;28;20029;-68
2021/12/02 22:43:36;;;;;;;0.10;0.10;;;;;;;-0.63;100.00;100633.91;10415872;28;20026;-68
2021/12/02 22:48:37;;;;;;;0.10;0.10;;;;;;;-0.61;100.00;100636.41;10415425;28;20033;-68
2021/12/02 22:53:37;;;;;;;0.10;0.10;;;;;;;-0.57;100.00;100630.94;10415987;28;20292;-68
2021/12/02 22:58:38;;;;;;;0.10;0.10;;;;;;;-0.52;100.00;100636.72;10414573;28;20021;-68
2021/12/02 23:03:41;;;;;;;0.20;0.20;;;;;;;-0.51;100.00;100641.00;10414424;28;20013;-68
2021/12/02 23:08:41;;;;;;;0.10;0.10;;;;;;;-0.50;100.00;100636.63;10410220;28;20030;-68
2021/12/02 23:13:41;;;;;;;0.10;0.10;;;;;;;-0.39;100.00;100655.13;10414612;28;20018;-68
2021/12/02 23:18:43;;;;;;;0.10;0.10;;;;;;;-0.27;100.00;100648.31;10414213;28;20021;-68
2021/12/02 23:23:46;;;;;;;0.15;0.15;;;;;;;-0.17;100.00;100652.06;10414193;28;20108;-68
2021/12/02 23:28:53;;;;;;;0.10;0.10;;;;;;;-0.07;100.00;100655.78;10413596;28;20049;-68
2021/12/02 23:33:57;;;;;;;0.10;0.10;;;;;;;0.04;100.00;100649.03;10413712;28;20061;-69
2021/12/02 23:38:58;;;;;;;0.00;0.00;;;;;;;0.11;100.00;100659.00;10412923;28;20032;-68
2021/12/02 23:43:58;;;;;;;0.10;0.10;;;;;;;0.15;100.00;100633.50;10413815;28;20022;-69
2021/12/02 23:48:59;;;;;;;0.00;0.00;;;;;;;0.12;100.00;100613.56;10412832;28;20025;-68
2021/12/02 23:53:59;;;;;;;0.00;0.00;;;;;;;0.09;100.00;100618.13;10413063;28;20128;-68
2021/12/02 23:59:00;;;;;;;0.10;0.10;;;;;;;0.02;100.00;100622.09;10412587;28;20040;-68
